KLNN/LNN METAR and TAF weather

Enter ICAO airport designator
Station Type Date Time Source
KLNN METAR 2021/10/24 21:55 UTC NOAA

KLNN 242155Z AUTO 10004KT 3SM OVC022 10/09 A2995 RMK AO1 T01000088


Station Type Date Time Source
KLNN Decoded METAR 2021/10/24 21:55 UTC NOAA

Willoughby, OH, United States (KLNN) 41-41N 081-23W
Oct 24, 2021 - 05:55 PM EDT / 2021.10.24 2155 UTC
Wind: from the E (100 degrees) at 5 MPH (4 KT):0
Visibility: 3 mile(s):0
Sky conditions: overcast
Temperature: 50.0 F (10.0 C)
Dew Point: 47.8 F (8.8 C)
Relative Humidity: 92%
Pressure (altimeter): 29.95 in. Hg (1014 hPa)
ob: KLNN 242155Z AUTO 10004KT 3SM OVC022 10/09 A2995 RMK AO1 T01000088
cycle: 22

Station Type Date Time Source
KLNN TAF UTC NOAA

Error!

Example: see airport list